sensor_id;sensor_type;location;lat;lon;timestamp;pressure;altitude;pressure_sealevel;temperature;humidity
39177;BME280;24904;52.208;21.192;2022-12-07T00:04:25;99808.48;;;3.20;79.42
39177;BME280;24904;52.208;21.192;2022-12-07T00:09:28;99810.81;;;3.21;79.60
39177;BME280;24904;52.208;21.192;2022-12-07T00:14:32;99802.42;;;3.23;79.62
39177;BME280;24904;52.208;21.192;2022-12-07T00:19:35;99791.70;;;3.24;79.68
39177;BME280;24904;52.208;21.192;2022-12-07T00:24:38;99791.38;;;3.21;79.46
39177;BME280;24904;52.208;21.192;2022-12-07T00:29:41;99791.05;;;3.23;79.71
39177;BME280;24904;52.208;21.192;2022-12-07T00:34:44;99782.77;;;3.26;79.48
39177;BME280;24904;52.208;21.192;2022-12-07T00:39:47;99782.00;;;3.26;79.56
39177;BME280;24904;52.208;21.192;2022-12-07T00:44:50;99780.93;;;3.24;79.37
39177;BME280;24904;52.208;21.192;2022-12-07T00:49:53;99780.56;;;3.22;79.53
39177;BME280;24904;52.208;21.192;2022-12-07T00:54:56;99778.98;;;3.22;79.35
39177;BME280;24904;52.208;21.192;2022-12-07T00:59:59;99778.53;;;3.19;79.52
39177;BME280;24904;52.208;21.192;2022-12-07T01:05:02;99784.42;;;3.22;79.65
39177;BME280;24904;52.208;21.192;2022-12-07T01:10:07;99788.02;;;3.27;79.70
39177;BME280;24904;52.208;21.192;2022-12-07T01:15:11;99782.23;;;3.29;79.44
39177;BME280;24904;52.208;21.192;2022-12-07T01:20:14;99780.00;;;3.29;79.49
39177;BME280;24904;52.208;21.192;2022-12-07T01:25:18;99775.41;;;3.29;79.81
39177;BME280;24904;52.208;21.192;2022-12-07T01:30:21;99777.02;;;3.31;79.76
39177;BME280;24904;52.208;21.192;2022-12-07T01:35:24;99775.73;;;3.35;80.02
39177;BME280;24904;52.208;21.192;2022-12-07T01:40:27;99772.48;;;3.37;79.62
39177;BME280;24904;52.208;21.192;2022-12-07T01:45:39;99768.86;;;3.38;79.81
39177;BME280;24904;52.208;21.192;2022-12-07T01:50:43;99763.77;;;3.44;79.92
39177;BME280;24904;52.208;21.192;2022-12-07T01:55:50;99762.25;;;3.45;80.04
39177;BME280;24904;52.208;21.192;2022-12-07T02:00:54;99757.71;;;3.46;80.13
39177;BME280;24904;52.208;21.192;2022-12-07T02:05:57;99753.77;;;3.49;80.11
39177;BME280;24904;52.208;21.192;2022-12-07T02:11:02;99746.71;;;3.52;80.32
39177;BME280;24904;52.208;21.192;2022-12-07T02:16:23;99741.58;;;3.54;80.13
39177;BME280;24904;52.208;21.192;2022-12-07T02:21:32;99742.70;;;3.55;80.60
39177;BME280;24904;52.208;21.192;2022-12-07T02:32:18;99741.21;;;3.54;80.50
39177;BME280;24904;52.208;21.192;2022-12-07T02:37:32;99734.00;;;3.54;80.65
39177;BME280;24904;52.208;21.192;2022-12-07T02:42:40;99730.00;;;3.53;81.01
39177;BME280;24904;52.208;21.192;2022-12-07T02:47:46;99726.25;;;3.49;80.92
39177;BME280;24904;52.208;21.192;2022-12-07T02:52:51;99725.40;;;3.41;81.17
39177;BME280;24904;52.208;21.192;2022-12-07T02:58:18;99726.52;;;3.46;81.34
39177;BME280;24904;52.208;21.192;2022-12-07T03:03:25;99719.98;;;3.50;81.47
39177;BME280;24904;52.208;21.192;2022-12-07T03:08:35;99716.42;;;3.50;81.19
39177;BME280;24904;52.208;21.192;2022-12-07T03:13:45;99714.08;;;3.49;81.30
39177;BME280;24904;52.208;21.192;2022-12-07T03:18:55;99716.70;;;3.44;81.48
39177;BME280;24904;52.208;21.192;2022-12-07T03:24:03;99714.45;;;3.34;81.64
39177;BME280;24904;52.208;21.192;2022-12-07T03:29:14;99713.56;;;3.24;81.67
39177;BME280;24904;52.208;21.192;2022-12-07T03:34:24;99711.64;;;3.29;81.86
39177;BME280;24904;52.208;21.192;2022-12-07T03:39:29;99706.70;;;3.28;82.02
39177;BME280;24904;52.208;21.192;2022-12-07T03:44:37;99701.02;;;3.22;81.93
39177;BME280;24904;52.208;21.192;2022-12-07T03:49:44;99699.46;;;3.24;81.93
39177;BME280;24904;52.208;21.192;2022-12-07T03:54:58;99699.20;;;3.32;82.31
39177;BME280;24904;52.208;21.192;2022-12-07T04:00:10;99691.94;;;3.37;81.83
39177;BME280;24904;52.208;21.192;2022-12-07T04:15:27;99690.45;;;3.42;81.73
39177;BME280;24904;52.208;21.192;2022-12-07T04:20:30;99692.14;;;3.44;81.36
39177;BME280;24904;52.208;21.192;2022-12-07T04:25:33;99694.16;;;3.44;81.46
39177;BME280;24904;52.208;21.192;2022-12-07T04:30:36;99690.32;;;3.43;81.37
39177;BME280;24904;52.208;21.192;2022-12-07T04:35:39;99687.11;;;3.42;81.16
39177;BME280;24904;52.208;21.192;2022-12-07T04:40:42;99685.04;;;3.37;81.15
39177;BME280;24904;52.208;21.192;2022-12-07T04:45:47;99685.67;;;3.33;81.26
39177;BME280;24904;52.208;21.192;2022-12-07T04:50:50;99685.04;;;3.29;81.12
39177;BME280;24904;52.208;21.192;2022-12-07T04:55:53;99684.46;;;3.23;80.56
39177;BME280;24904;52.208;21.192;2022-12-07T05:00:56;99680.27;;;3.20;80.91
39177;BME280;24904;52.208;21.192;2022-12-07T05:05:59;99675.90;;;3.19;81.20
39177;BME280;24904;52.208;21.192;2022-12-07T05:11:03;99663.88;;;3.19;81.07
39177;BME280;24904;52.208;21.192;2022-12-07T05:16:07;99662.23;;;3.15;80.99
39177;BME280;24904;52.208;21.192;2022-12-07T05:21:10;99661.91;;;3.15;81.15
39177;BME280;24904;52.208;21.192;2022-12-07T05:26:13;99663.23;;;3.14;81.06
39177;BME280;24904;52.208;21.192;2022-12-07T05:31:16;99658.69;;;3.10;80.92
39177;BME280;24904;52.208;21.192;2022-12-07T05:36:19;99662.00;;;3.08;81.14
39177;BME280;24904;52.208;21.192;2022-12-07T05:41:22;99657.16;;;3.04;80.79
39177;BME280;24904;52.208;21.192;2022-12-07T05:46:43;99660.47;;;3.03;80.55
39177;BME280;24904;52.208;21.192;2022-12-07T05:51:46;99666.83;;;3.00;80.75
39177;BME280;24904;52.208;21.192;2022-12-07T05:56:49;99666.88;;;2.99;80.68
39177;BME280;24904;52.208;21.192;2022-12-07T06:01:53;99668.41;;;2.96;80.61
39177;BME280;24904;52.208;21.192;2022-12-07T06:06:57;99674.21;;;2.91;80.64
39177;BME280;24904;52.208;21.192;2022-12-07T06:12:00;99669.34;;;2.89;80.54
39177;BME280;24904;52.208;21.192;2022-12-07T06:17:22;99667.44;;;2.87;80.41
39177;BME280;24904;52.208;21.192;2022-12-07T06:22:25;99665.86;;;2.83;80.27
39177;BME280;24904;52.208;21.192;2022-12-07T06:27:28;99668.63;;;2.82;80.61
39177;BME280;24904;52.208;21.192;2022-12-07T06:32:31;99663.74;;;2.81;80.15
39177;BME280;24904;52.208;21.192;2022-12-07T06:37:34;99663.76;;;2.78;80.49
39177;BME280;24904;52.208;21.192;2022-12-07T06:42:37;99662.06;;;2.76;80.17
39177;BME280;24904;52.208;21.192;2022-12-07T06:47:40;99660.43;;;2.71;80.47
39177;BME280;24904;52.208;21.192;2022-12-07T06:52:43;99659.45;;;2.72;80.59
39177;BME280;24904;52.208;21.192;2022-12-07T06:57:46;99658.80;;;2.76;80.27
39177;BME280;24904;52.208;21.192;2022-12-07T07:02:49;99655.86;;;2.73;80.57
39177;BME280;24904;52.208;21.192;2022-12-07T07:07:52;99660.24;;;2.72;80.43
39177;BME280;24904;52.208;21.192;2022-12-07T07:12:55;99663.73;;;2.72;80.32
39177;BME280;24904;52.208;21.192;2022-12-07T07:17:58;99661.75;;;2.76;80.47
39177;BME280;24904;52.208;21.192;2022-12-07T07:23:02;99660.48;;;2.73;80.34
39177;BME280;24904;52.208;21.192;2022-12-07T07:28:05;99653.31;;;2.71;80.60
39177;BME280;24904;52.208;21.192;2022-12-07T07:33:09;99657.29;;;2.72;80.44
39177;BME280;24904;52.208;21.192;2022-12-07T07:38:12;99659.06;;;2.68;80.72
39177;BME280;24904;52.208;21.192;2022-12-07T07:43:15;99660.60;;;2.66;80.27
39177;BME280;24904;52.208;21.192;2022-12-07T07:48:18;99662.31;;;2.68;80.60
39177;BME280;24904;52.208;21.192;2022-12-07T07:53:21;99660.23;;;2.72;80.51
39177;BME280;24904;52.208;21.192;2022-12-07T07:58:24;99660.20;;;2.73;80.45
39177;BME280;24904;52.208;21.192;2022-12-07T08:03:27;99661.34;;;2.75;80.50
39177;BME280;24904;52.208;21.192;2022-12-07T08:08:31;99661.31;;;2.72;80.69
39177;BME280;24904;52.208;21.192;2022-12-07T08:13:34;99663.72;;;2.72;80.70
39177;BME280;24904;52.208;21.192;2022-12-07T08:18:38;99665.34;;;2.77;80.88
39177;BME280;24904;52.208;21.192;2022-12-07T08:23:42;99665.71;;;2.79;80.81
39177;BME280;24904;52.208;21.192;2022-12-07T08:28:45;99669.06;;;2.79;80.80
39177;BME280;24904;52.208;21.192;2022-12-07T08:33:49;99671.31;;;2.80;81.06
39177;BME280;24904;52.208;21.192;2022-12-07T08:38:52;99670.41;;;2.81;81.21
39177;BME280;24904;52.208;21.192;2022-12-07T08:43:55;99671.77;;;2.82;81.55
39177;BME280;24904;52.208;21.192;2022-12-07T08:49:02;99671.80;;;2.85;81.50
39177;BME280;24904;52.208;21.192;2022-12-07T08:54:09;99672.83;;;2.76;81.54
39177;BME280;24904;52.208;21.192;2022-12-07T08:59:15;99668.78;;;2.73;82.32
39177;BME280;24904;52.208;21.192;2022-12-07T09:04:20;99668.99;;;2.77;82.34
39177;BME280;24904;52.208;21.192;2022-12-07T09:09:23;99670.95;;;2.78;82.06
39177;BME280;24904;52.208;21.192;2022-12-07T09:14:26;99668.80;;;2.74;82.51
39177;BME280;24904;52.208;21.192;2022-12-07T09:19:29;99664.02;;;2.71;82.72
39177;BME280;24904;52.208;21.192;2022-12-07T09:24:32;99661.65;;;2.78;83.31
39177;BME280;24904;52.208;21.192;2022-12-07T09:29:36;99653.54;;;2.81;83.15
39177;BME280;24904;52.208;21.192;2022-12-07T09:34:39;99648.50;;;2.83;83.27
39177;BME280;24904;52.208;21.192;2022-12-07T09:39:42;99652.84;;;2.86;83.25
39177;BME280;24904;52.208;21.192;2022-12-07T09:44:45;99645.43;;;2.87;83.02
39177;BME280;24904;52.208;21.192;2022-12-07T09:49:48;99643.77;;;2.85;82.90
39177;BME280;24904;52.208;21.192;2022-12-07T09:54:52;99642.95;;;2.90;82.93
39177;BME280;24904;52.208;21.192;2022-12-07T09:59:56;99639.33;;;2.95;82.90
39177;BME280;24904;52.208;21.192;2022-12-07T10:05:05;99640.73;;;2.98;83.13
39177;BME280;24904;52.208;21.192;2022-12-07T10:10:15;99638.91;;;3.00;83.12
39177;BME280;24904;52.208;21.192;2022-12-07T10:15:18;99637.64;;;3.01;82.88
39177;BME280;24904;52.208;21.192;2022-12-07T10:20:26;99629.02;;;3.03;82.71
39177;BME280;24904;52.208;21.192;2022-12-07T10:25:32;99625.14;;;3.08;82.63
39177;BME280;24904;52.208;21.192;2022-12-07T10:30:51;99626.34;;;3.12;82.37
39177;BME280;24904;52.208;21.192;2022-12-07T10:35:55;99631.25;;;3.13;82.63
39177;BME280;24904;52.208;21.192;2022-12-07T10:41:05;99625.81;;;3.15;82.17
39177;BME280;24904;52.208;21.192;2022-12-07T10:51:46;99631.14;;;3.18;82.04
39177;BME280;24904;52.208;21.192;2022-12-07T10:57:06;99635.84;;;3.17;81.57
39177;BME280;24904;52.208;21.192;2022-12-07T11:02:27;99636.98;;;3.18;81.48
39177;BME280;24904;52.208;21.192;2022-12-07T11:07:42;99635.04;;;3.18;81.44
39177;BME280;24904;52.208;21.192;2022-12-07T11:13:08;99634.06;;;3.22;81.32
39177;BME280;24904;52.208;21.192;2022-12-07T11:18:18;99633.30;;;3.25;80.96
39177;BME280;24904;52.208;21.192;2022-12-07T11:23:33;99632.54;;;3.31;81.10
39177;BME280;24904;52.208;21.192;2022-12-07T11:29:05;99627.18;;;3.34;81.05
39177;BME280;24904;52.208;21.192;2022-12-07T11:34:18;99626.45;;;3.38;81.00
39177;BME280;24904;52.208;21.192;2022-12-07T11:39:28;99623.82;;;3.44;81.36
39177;BME280;24904;52.208;21.192;2022-12-07T11:44:36;99621.93;;;3.49;81.18
39177;BME280;24904;52.208;21.192;2022-12-07T11:49:44;99615.52;;;3.55;81.07
39177;BME280;24904;52.208;21.192;2022-12-07T11:54:52;99616.27;;;3.57;80.85
39177;BME280;24904;52.208;21.192;2022-12-07T12:00:00;99610.42;;;3.59;80.89
39177;BME280;24904;52.208;21.192;2022-12-07T12:05:15;99605.98;;;3.65;80.79
39177;BME280;24904;52.208;21.192;2022-12-07T12:10:25;99608.24;;;3.70;80.89
39177;BME280;24904;52.208;21.192;2022-12-07T12:15:45;99606.77;;;3.68;80.56
39177;BME280;24904;52.208;21.192;2022-12-07T12:20:56;99596.12;;;3.73;80.89
39177;BME280;24904;52.208;21.192;2022-12-07T12:26:03;99588.05;;;3.79;80.75
39177;BME280;24904;52.208;21.192;2022-12-07T12:31:14;99588.95;;;3.83;80.86
39177;BME280;24904;52.208;21.192;2022-12-07T12:36:24;99588.22;;;3.82;80.21
39177;BME280;24904;52.208;21.192;2022-12-07T12:41:58;99588.05;;;3.76;80.54
39177;BME280;24904;52.208;21.192;2022-12-07T12:47:42;99586.38;;;3.71;80.74
39177;BME280;24904;52.208;21.192;2022-12-07T12:58:36;99586.89;;;3.64;81.12
39177;BME280;24904;52.208;21.192;2022-12-07T13:03:52;99578.06;;;3.62;81.00
39177;BME280;24904;52.208;21.192;2022-12-07T13:08:57;99581.98;;;3.60;81.17
39177;BME280;24904;52.208;21.192;2022-12-07T13:19:54;99576.08;;;3.60;81.10
39177;BME280;24904;52.208;21.192;2022-12-07T13:24:57;99575.63;;;3.60;81.11
39177;BME280;24904;52.208;21.192;2022-12-07T13:30:05;99571.14;;;3.61;80.52
39177;BME280;24904;52.208;21.192;2022-12-07T13:35:33;99573.77;;;3.61;80.45
39177;BME280;24904;52.208;21.192;2022-12-07T13:40:36;99572.23;;;3.57;80.61
39177;BME280;24904;52.208;21.192;2022-12-07T13:45:41;99575.91;;;3.59;80.75
39177;BME280;24904;52.208;21.192;2022-12-07T13:50:58;99577.77;;;3.62;80.49
39177;BME280;24904;52.208;21.192;2022-12-07T13:56:01;99578.14;;;3.67;80.36
39177;BME280;24904;52.208;21.192;2022-12-07T14:01:05;99579.60;;;3.67;80.85
39177;BME280;24904;52.208;21.192;2022-12-07T14:06:22;99578.54;;;3.67;80.62
39177;BME280;24904;52.208;21.192;2022-12-07T14:11:30;99580.35;;;3.66;80.58
39177;BME280;24904;52.208;21.192;2022-12-07T14:16:35;99576.75;;;3.62;80.45
39177;BME280;24904;52.208;21.192;2022-12-07T14:21:40;99573.29;;;3.59;80.91
39177;BME280;24904;52.208;21.192;2022-12-07T14:26:43;99580.85;;;3.58;80.75
39177;BME280;24904;52.208;21.192;2022-12-07T14:31:46;99583.52;;;3.52;80.34
39177;BME280;24904;52.208;21.192;2022-12-07T14:36:50;99584.05;;;3.50;80.64
39177;BME280;24904;52.208;21.192;2022-12-07T14:41:53;99584.40;;;3.43;80.30
39177;BME280;24904;52.208;21.192;2022-12-07T14:46:56;99587.41;;;3.37;80.25
39177;BME280;24904;52.208;21.192;2022-12-07T14:51:59;99585.47;;;3.37;80.31
39177;BME280;24904;52.208;21.192;2022-12-07T14:57:02;99584.33;;;3.32;80.07
39177;BME280;24904;52.208;21.192;2022-12-07T15:02:06;99586.23;;;3.27;80.01
39177;BME280;24904;52.208;21.192;2022-12-07T15:07:14;99588.72;;;3.25;79.90
39177;BME280;24904;52.208;21.192;2022-12-07T15:12:19;99590.27;;;3.23;79.97
39177;BME280;24904;52.208;21.192;2022-12-07T15:17:22;99585.65;;;3.18;79.62
39177;BME280;24904;52.208;21.192;2022-12-07T15:22:25;99583.54;;;3.11;79.86
39177;BME280;24904;52.208;21.192;2022-12-07T15:27:28;99576.67;;;3.05;79.95
39177;BME280;24904;52.208;21.192;2022-12-07T15:32:32;99572.27;;;2.96;79.78
39177;BME280;24904;52.208;21.192;2022-12-07T15:37:35;99565.86;;;2.95;79.89
39177;BME280;24904;52.208;21.192;2022-12-07T15:42:38;99564.27;;;2.93;79.86
39177;BME280;24904;52.208;21.192;2022-12-07T15:47:43;99570.62;;;2.87;79.96
39177;BME280;24904;52.208;21.192;2022-12-07T15:52:47;99563.94;;;2.90;80.28
39177;BME280;24904;52.208;21.192;2022-12-07T15:57:50;99565.98;;;2.91;80.24
39177;BME280;24904;52.208;21.192;2022-12-07T16:02:53;99571.83;;;2.92;80.47
39177;BME280;24904;52.208;21.192;2022-12-07T16:07:56;99570.81;;;2.92;80.39
39177;BME280;24904;52.208;21.192;2022-12-07T16:12:59;99568.34;;;2.89;80.47
39177;BME280;24904;52.208;21.192;2022-12-07T16:18:02;99565.41;;;2.89;80.47
39177;BME280;24904;52.208;21.192;2022-12-07T16:23:05;99559.73;;;2.89;80.21
39177;BME280;24904;52.208;21.192;2022-12-07T16:28:09;99561.21;;;2.92;80.49
39177;BME280;24904;52.208;21.192;2022-12-07T16:33:12;99557.91;;;2.93;80.87
39177;BME280;24904;52.208;21.192;2022-12-07T16:38:15;99562.51;;;2.96;80.50
39177;BME280;24904;52.208;21.192;2022-12-07T16:43:18;99567.64;;;3.00;80.68
39177;BME280;24904;52.208;21.192;2022-12-07T16:48:21;99563.66;;;3.02;80.75
39177;BME280;24904;52.208;21.192;2022-12-07T16:53:24;99559.20;;;3.01;80.79
39177;BME280;24904;52.208;21.192;2022-12-07T16:58:28;99559.56;;;3.02;80.72
39177;BME280;24904;52.208;21.192;2022-12-07T17:03:31;99556.19;;;3.03;80.73
39177;BME280;24904;52.208;21.192;2022-12-07T17:08:34;99548.18;;;3.08;80.69
39177;BME280;24904;52.208;21.192;2022-12-07T17:13:37;99545.23;;;3.08;80.16
39177;BME280;24904;52.208;21.192;2022-12-07T17:18:58;99543.86;;;3.09;80.62
39177;BME280;24904;52.208;21.192;2022-12-07T17:24:03;99550.10;;;3.08;80.49
39177;BME280;24904;52.208;21.192;2022-12-07T17:29:07;99547.42;;;3.09;80.55
39177;BME280;24904;52.208;21.192;2022-12-07T17:34:12;99542.90;;;3.10;80.25
39177;BME280;24904;52.208;21.192;2022-12-07T17:39:17;99539.29;;;3.14;80.23
39177;BME280;24904;52.208;21.192;2022-12-07T17:44:20;99541.05;;;3.16;80.41
39177;BME280;24904;52.208;21.192;2022-12-07T17:49:24;99543.89;;;3.18;79.97
39177;BME280;24904;52.208;21.192;2022-12-07T17:54:28;99544.93;;;3.16;80.26
39177;BME280;24904;52.208;21.192;2022-12-07T17:59:32;99543.02;;;3.17;80.34
39177;BME280;24904;52.208;21.192;2022-12-07T18:04:35;99540.14;;;3.20;80.30
39177;BME280;24904;52.208;21.192;2022-12-07T18:09:38;99539.81;;;3.19;80.16
39177;BME280;24904;52.208;21.192;2022-12-07T18:14:41;99541.42;;;3.19;80.24
39177;BME280;24904;52.208;21.192;2022-12-07T18:19:44;99540.01;;;3.15;80.00
39177;BME280;24904;52.208;21.192;2022-12-07T18:24:47;99536.42;;;3.11;80.37
39177;BME280;24904;52.208;21.192;2022-12-07T18:29:50;99535.25;;;3.13;80.12
39177;BME280;24904;52.208;21.192;2022-12-07T18:34:55;99537.08;;;3.16;80.43
39177;BME280;24904;52.208;21.192;2022-12-07T18:39:58;99536.65;;;3.17;80.25
39177;BME280;24904;52.208;21.192;2022-12-07T18:45:01;99532.41;;;3.15;80.16
39177;BME280;24904;52.208;21.192;2022-12-07T18:50:06;99534.70;;;3.17;80.06
39177;BME280;24904;52.208;21.192;2022-12-07T18:55:09;99539.80;;;3.16;79.91
39177;BME280;24904;52.208;21.192;2022-12-07T19:00:14;99547.20;;;3.17;79.80
39177;BME280;24904;52.208;21.192;2022-12-07T19:05:18;99565.20;;;3.18;80.03
39177;BME280;24904;52.208;21.192;2022-12-07T19:10:21;99567.98;;;3.15;80.03
39177;BME280;24904;52.208;21.192;2022-12-07T19:15:24;99568.82;;;3.04;80.07
39177;BME280;24904;52.208;21.192;2022-12-07T19:20:27;99569.45;;;3.04;80.30
39177;BME280;24904;52.208;21.192;2022-12-07T19:25:30;99577.16;;;2.99;80.27
39177;BME280;24904;52.208;21.192;2022-12-07T19:30:33;99579.77;;;2.98;80.40
39177;BME280;24904;52.208;21.192;2022-12-07T19:35:36;99574.99;;;2.97;80.06
39177;BME280;24904;52.208;21.192;2022-12-07T19:40:39;99580.23;;;2.98;79.85
39177;BME280;24904;52.208;21.192;2022-12-07T19:45:42;99589.01;;;2.96;79.94
39177;BME280;24904;52.208;21.192;2022-12-07T19:50:45;99593.75;;;2.92;79.39
39177;BME280;24904;52.208;21.192;2022-12-07T19:55:48;99598.48;;;2.86;79.17
39177;BME280;24904;52.208;21.192;2022-12-07T20:00:51;99604.23;;;2.77;79.38
39177;BME280;24904;52.208;21.192;2022-12-07T20:05:54;99615.61;;;2.71;78.75
39177;BME280;24904;52.208;21.192;2022-12-07T20:10:59;99627.70;;;2.64;79.12
39177;BME280;24904;52.208;21.192;2022-12-07T20:16:22;99636.82;;;2.61;79.18
39177;BME280;24904;52.208;21.192;2022-12-07T20:21:25;99636.49;;;2.60;78.88
39177;BME280;24904;52.208;21.192;2022-12-07T20:26:29;99643.09;;;2.56;78.39
39177;BME280;24904;52.208;21.192;2022-12-07T20:31:32;99644.95;;;2.46;77.86
39177;BME280;24904;52.208;21.192;2022-12-07T20:36:36;99649.23;;;2.44;77.68
39177;BME280;24904;52.208;21.192;2022-12-07T20:41:40;99655.23;;;2.43;77.72
39177;BME280;24904;52.208;21.192;2022-12-07T20:47:01;99668.73;;;2.42;77.47
39177;BME280;24904;52.208;21.192;2022-12-07T20:52:04;99679.18;;;2.34;77.17
39177;BME280;24904;52.208;21.192;2022-12-07T20:57:07;99680.39;;;2.28;76.95
39177;BME280;24904;52.208;21.192;2022-12-07T21:02:11;99688.23;;;2.27;77.18
39177;BME280;24904;52.208;21.192;2022-12-07T21:07:14;99692.61;;;2.31;77.24
39177;BME280;24904;52.208;21.192;2022-12-07T21:12:18;99691.64;;;2.32;76.98
39177;BME280;24904;52.208;21.192;2022-12-07T21:17:21;99697.69;;;2.25;76.71
39177;BME280;24904;52.208;21.192;2022-12-07T21:22:24;99702.64;;;2.23;76.94
39177;BME280;24904;52.208;21.192;2022-12-07T21:27:27;99702.20;;;2.25;76.87
39177;BME280;24904;52.208;21.192;2022-12-07T21:32:30;99705.36;;;2.26;76.79
39177;BME280;24904;52.208;21.192;2022-12-07T21:37:33;99709.91;;;2.27;76.60
39177;BME280;24904;52.208;21.192;2022-12-07T21:42:36;99713.81;;;2.26;76.39
39177;BME280;24904;52.208;21.192;2022-12-07T21:47:39;99717.92;;;2.29;76.23
39177;BME280;24904;52.208;21.192;2022-12-07T21:52:42;99714.02;;;2.28;76.00
39177;BME280;24904;52.208;21.192;2022-12-07T21:57:45;99720.86;;;2.24;76.25
39177;BME280;24904;52.208;21.192;2022-12-07T22:02:48;99717.35;;;2.26;75.78
39177;BME280;24904;52.208;21.192;2022-12-07T22:07:50;99710.56;;;2.26;75.82
39177;BME280;24904;52.208;21.192;2022-12-07T22:12:54;99713.72;;;2.24;75.65
39177;BME280;24904;52.208;21.192;2022-12-07T22:17:58;99710.36;;;2.23;75.91
39177;BME280;24904;52.208;21.192;2022-12-07T22:23:01;99715.08;;;2.25;75.75
39177;BME280;24904;52.208;21.192;2022-12-07T22:28:04;99717.05;;;2.24;75.44
39177;BME280;24904;52.208;21.192;2022-12-07T22:33:07;99713.74;;;2.22;75.37
39177;BME280;24904;52.208;21.192;2022-12-07T22:38:10;99714.20;;;2.22;75.38
39177;BME280;24904;52.208;21.192;2022-12-07T22:43:13;99717.80;;;2.16;75.04
39177;BME280;24904;52.208;21.192;2022-12-07T22:48:16;99721.82;;;2.18;75.63
39177;BME280;24904;52.208;21.192;2022-12-07T22:53:19;99721.62;;;2.22;75.75
39177;BME280;24904;52.208;21.192;2022-12-07T22:58:23;99715.30;;;2.25;75.93
39177;BME280;24904;52.208;21.192;2022-12-07T23:03:29;99715.45;;;2.29;75.72
39177;BME280;24904;52.208;21.192;2022-12-07T23:08:32;99723.00;;;2.33;75.91
39177;BME280;24904;52.208;21.192;2022-12-07T23:13:35;99718.27;;;2.34;75.78
39177;BME280;24904;52.208;21.192;2022-12-07T23:18:40;99721.66;;;2.41;75.38
39177;BME280;24904;52.208;21.192;2022-12-07T23:23:43;99728.78;;;2.41;75.62
39177;BME280;24904;52.208;21.192;2022-12-07T23:28:46;99732.39;;;2.40;75.45
39177;BME280;24904;52.208;21.192;2022-12-07T23:33:49;99733.41;;;2.39;75.71
39177;BME280;24904;52.208;21.192;2022-12-07T23:38:54;99739.23;;;2.36;75.53
39177;BME280;24904;52.208;21.192;2022-12-07T23:43:58;99735.33;;;2.38;75.63
39177;BME280;24904;52.208;21.192;2022-12-07T23:49:03;99736.73;;;2.43;75.84
39177;BME280;24904;52.208;21.192;2022-12-07T23:54:07;99735.28;;;2.43;75.78
39177;BME280;24904;52.208;21.192;2022-12-07T23:59:11;99737.52;;;2.43;75.78
